createdAt,value
2018-01-17T00:00:55.315Z,20.12
2018-01-17T00:03:22.267Z,22.90
2018-01-17T00:05:48.848Z,21.73
2018-01-17T00:08:15.339Z,21.37
2018-01-17T00:10:41.883Z,19.52
2018-01-17T00:13:10.862Z,21.15
2018-01-17T00:15:37.412Z,20.35
2018-01-17T00:18:04.066Z,17.90
2018-01-17T00:20:31.452Z,18.23
2018-01-17T00:22:57.922Z,19.42
2018-01-17T00:25:24.815Z,20.20
2018-01-17T00:27:52.284Z,20.37
2018-01-17T00:30:18.829Z,19.85
2018-01-17T00:32:45.288Z,17.37
2018-01-17T00:35:11.876Z,19.23
2018-01-17T00:37:38.359Z,19.20
2018-01-17T00:40:04.927Z,18.90
2018-01-17T00:42:31.447Z,19.35
2018-01-17T00:44:58.040Z,19.10
2018-01-17T00:47:24.560Z,17.80
2018-01-17T00:49:51.359Z,17.17
2018-01-17T00:52:17.875Z,18.95
2018-01-17T00:54:44.424Z,15.40
2018-01-17T00:57:10.955Z,17.85
2018-01-17T00:59:37.583Z,8.10
2018-01-17T01:02:04.064Z,11.60
2018-01-17T01:04:30.591Z,13.73
2018-01-17T01:06:57.091Z,11.73
2018-01-17T01:09:23.627Z,13.60
2018-01-17T01:11:50.212Z,13.50
2018-01-17T01:14:16.686Z,14.32
2018-01-17T01:16:43.280Z,12.15
2018-01-17T01:19:09.820Z,11.43
2018-01-17T01:21:36.335Z,13.20
2018-01-17T01:24:02.879Z,11.05
2018-01-17T01:26:29.367Z,12.75
2018-01-17T01:28:55.824Z,12.15
2018-01-17T01:31:22.532Z,12.50
2018-01-17T01:33:49.060Z,12.07
2018-01-17T01:36:15.516Z,13.43
2018-01-17T01:38:42.104Z,11.85
2018-01-17T01:41:08.668Z,12.65
2018-01-17T01:43:35.119Z,12.30
2018-01-17T01:46:01.612Z,13.00
2018-01-17T01:48:28.248Z,13.38
2018-01-17T01:50:54.711Z,13.57
2018-01-17T01:53:21.320Z,13.18
2018-01-17T01:55:47.877Z,14.25
2018-01-17T01:58:14.640Z,13.82
2018-01-17T02:00:41.179Z,15.50
2018-01-17T02:03:09.415Z,15.00
2018-01-17T02:05:36.079Z,19.12
2018-01-17T02:08:02.619Z,23.90
2018-01-17T02:10:29.775Z,23.40
2018-01-17T02:12:56.143Z,18.20
2018-01-17T02:15:22.615Z,13.05
2018-01-17T02:17:49.056Z,16.45
2018-01-17T02:20:15.672Z,17.83
2018-01-17T02:22:42.135Z,17.05
2018-01-17T02:25:08.685Z,19.40
2018-01-17T02:27:35.616Z,17.30
2018-01-17T02:30:02.420Z,15.95
2018-01-17T02:32:28.904Z,15.98
2018-01-17T02:34:55.736Z,15.48
2018-01-17T02:37:22.880Z,15.27
2018-01-17T02:40:01.480Z,15.38
2018-01-17T02:42:27.835Z,17.15
2018-01-17T02:44:54.576Z,17.73
2018-01-17T02:47:21.684Z,17.35
2018-01-17T02:49:48.156Z,14.70
2018-01-17T02:52:14.774Z,15.10
2018-01-17T02:54:41.560Z,11.95
2018-01-17T02:57:08.111Z,15.82
2018-01-17T02:59:34.599Z,14.02
2018-01-17T03:02:02.119Z,15.68
2018-01-17T03:04:28.599Z,14.93
2018-01-17T03:06:55.435Z,14.02
2018-01-17T03:09:21.808Z,14.93
2018-01-17T03:11:49.423Z,15.45
2018-01-17T03:14:16.779Z,16.17
2018-01-17T03:16:43.751Z,16.35
2018-01-17T03:19:10.336Z,16.02
2018-01-17T03:21:37.168Z,14.93
2018-01-17T03:24:03.712Z,16.37
2018-01-17T03:26:30.183Z,15.30
2018-01-17T03:28:56.707Z,14.25
2018-01-17T03:31:23.380Z,16.15
2018-01-17T03:33:50.457Z,16.40
2018-01-17T03:36:16.916Z,14.15
2018-01-17T03:38:43.477Z,13.50
2018-01-17T03:41:09.996Z,14.70
2018-01-17T03:43:36.601Z,14.18
2018-01-17T03:46:03.452Z,14.63
2018-01-17T03:48:30.012Z,17.10
2018-01-17T03:50:56.481Z,16.05
2018-01-17T03:53:22.964Z,18.17
2018-01-17T03:55:49.849Z,15.93
2018-01-17T03:58:16.344Z,16.35
2018-01-17T04:00:43.221Z,16.73
2018-01-17T04:03:09.792Z,15.35
2018-01-17T04:05:37.316Z,16.10
2018-01-17T04:08:03.796Z,16.02
2018-01-17T04:10:30.245Z,14.95
2018-01-17T04:12:56.864Z,15.43
2018-01-17T04:15:23.384Z,17.10
2018-01-17T04:17:49.902Z,16.08
2018-01-17T04:20:16.479Z,16.48
2018-01-17T04:22:42.976Z,14.93
2018-01-17T04:25:09.775Z,16.02
2018-01-17T04:27:36.331Z,14.77
2018-01-17T04:30:02.971Z,16.87
2018-01-17T04:32:29.395Z,16.27
2018-01-17T04:34:55.999Z,16.70
2018-01-17T04:37:22.452Z,13.48
2018-01-17T04:39:49.088Z,15.55
2018-01-17T04:42:15.896Z,15.52
2018-01-17T04:44:42.431Z,17.10
2018-01-17T04:47:09.219Z,15.68
2018-01-17T04:49:36.051Z,16.50
2018-01-17T04:52:02.668Z,16.85
2018-01-17T04:54:30.176Z,17.02
2018-01-17T04:56:56.615Z,17.25
2018-01-17T04:59:23.126Z,18.20
2018-01-17T05:01:53.373Z,17.70
2018-01-17T05:04:19.820Z,18.12
2018-01-17T05:06:46.456Z,21.52
2018-01-17T05:09:12.952Z,18.65
2018-01-17T05:11:39.545Z,20.67
2018-01-17T05:14:06.412Z,24.12
2018-01-17T05:16:32.943Z,24.52
2018-01-17T05:18:59.388Z,21.77
2018-01-17T05:21:25.756Z,21.80
2018-01-17T05:23:52.767Z,22.05
2018-01-17T05:26:19.680Z,17.35
2018-01-17T05:28:46.455Z,20.30
2018-01-17T05:31:13.048Z,21.77
2018-01-17T05:33:39.540Z,22.45
2018-01-17T05:36:06.072Z,22.58
2018-01-17T05:38:32.592Z,23.15
2018-01-17T05:40:59.127Z,25.90
2018-01-17T05:43:25.724Z,25.35
2018-01-17T05:45:52.505Z,24.27
2018-01-17T05:48:18.915Z,23.98
2018-01-17T05:50:45.575Z,19.27
2018-01-17T05:53:12.123Z,22.62
2018-01-17T05:55:38.639Z,21.87
2018-01-17T05:58:05.244Z,19.67
2018-01-17T06:00:31.732Z,21.58
2018-01-17T06:02:58.304Z,22.00
2018-01-17T06:05:24.724Z,22.60
2018-01-17T06:07:51.315Z,22.35
2018-01-17T06:10:17.864Z,21.42
2018-01-17T06:12:44.728Z,21.48
2018-01-17T06:15:11.232Z,20.77
2018-01-17T06:17:38.076Z,19.30
2018-01-17T06:20:04.628Z,22.98
2018-01-17T06:22:31.015Z,21.35
2018-01-17T06:24:57.743Z,18.23
2018-01-17T06:27:24.284Z,19.55
2018-01-17T06:29:50.768Z,19.55
2018-01-17T06:32:17.306Z,21.60
2018-01-17T06:34:43.829Z,21.15
2018-01-17T06:37:10.651Z,20.88
2018-01-17T06:39:37.295Z,23.58
2018-01-17T06:42:03.820Z,29.95
2018-01-17T06:44:31.322Z,27.73
2018-01-17T06:46:57.733Z,29.65
2018-01-17T06:49:24.097Z,27.58
2018-01-17T06:51:50.483Z,25.55
2018-01-17T06:54:17.027Z,21.42
2018-01-17T06:56:43.606Z,23.02
2018-01-17T06:59:10.453Z,23.50
2018-01-17T07:01:36.935Z,26.87
2018-01-17T07:04:03.475Z,27.60
2018-01-17T07:06:29.845Z,26.35
2018-01-17T07:08:57.236Z,25.35
2018-01-17T07:11:23.768Z,25.10
2018-01-17T07:13:50.267Z,23.67
2018-01-17T07:16:16.767Z,28.00
2018-01-17T07:18:43.379Z,28.17
2018-01-17T07:21:09.944Z,26.45
2018-01-17T07:23:36.359Z,26.45
2018-01-17T07:26:02.939Z,27.75
2018-01-17T07:28:29.504Z,26.83
2018-01-17T07:30:56.044Z,26.73
2018-01-17T07:33:22.552Z,29.30
2018-01-17T07:35:49.088Z,26.07
2018-01-17T07:38:15.579Z,27.13
2018-01-17T07:40:42.024Z,26.70
2018-01-17T07:43:08.647Z,26.53
2018-01-17T07:45:35.564Z,24.47
2018-01-17T07:48:02.023Z,26.20
2018-01-17T07:50:28.599Z,27.10
2018-01-17T07:52:55.092Z,24.20
2018-01-17T07:55:21.644Z,25.77
2018-01-17T07:57:48.183Z,26.93
2018-01-17T08:00:14.704Z,25.30
2018-01-17T08:02:41.300Z,27.57
2018-01-17T08:05:07.832Z,27.77
2018-01-17T08:07:34.352Z,28.70
2018-01-17T08:10:00.944Z,25.03
2018-01-17T08:12:27.371Z,23.90
2018-01-17T08:14:53.971Z,24.47
2018-01-17T08:17:20.500Z,21.70
2018-01-17T08:19:46.990Z,17.87
2018-01-17T08:22:13.572Z,22.80
2018-01-17T08:24:40.151Z,21.77
2018-01-17T08:27:06.582Z,21.80
2018-01-17T08:29:33.119Z,19.70
2018-01-17T08:31:59.669Z,20.63
2018-01-17T08:34:26.256Z,18.90
2018-01-17T17:37:09.347Z,13.02
2018-01-17T17:39:36.087Z,5.07
2018-01-17T17:42:02.659Z,1.65
2018-01-17T17:44:44.763Z,1.65
2018-01-17T17:50:09.156Z,2.85
2018-01-17T17:52:35.907Z,3.08
2018-01-17T17:55:02.873Z,3.10
2018-01-17T17:57:29.402Z,4.37
2018-01-17T17:59:56.249Z,3.22
2018-01-17T18:02:22.752Z,3.12
2018-01-17T18:04:49.255Z,4.12
2018-01-17T18:07:16.434Z,5.10
2018-01-17T18:09:42.951Z,3.37
2018-01-17T18:12:09.849Z,2.58
2018-01-17T18:14:36.649Z,3.05
2018-01-17T18:17:03.221Z,2.33
2018-01-17T18:19:29.802Z,2.25
2018-01-17T18:21:56.308Z,2.00
2018-01-17T18:24:24.960Z,1.95
2018-01-17T18:26:51.464Z,2.30
2018-01-17T18:29:18.076Z,2.05
2018-01-17T18:31:44.592Z,1.90
2018-01-17T18:34:11.383Z,2.30
2018-01-17T18:36:37.957Z,1.55
2018-01-17T18:39:05.659Z,1.70
2018-01-17T18:41:32.576Z,3.05
2018-01-17T18:43:59.134Z,3.30
2018-01-17T18:46:25.721Z,3.25
2018-01-17T18:48:53.444Z,3.92
2018-01-17T18:51:19.921Z,4.18
2018-01-17T18:53:46.420Z,7.00
2018-01-17T18:56:12.948Z,4.80
2018-01-17T18:58:39.493Z,4.82
2018-01-17T19:01:06.351Z,7.35
2018-01-17T19:03:32.945Z,6.20
2018-01-17T19:05:59.391Z,5.20
2018-01-17T19:08:25.996Z,6.15
2018-01-17T19:10:54.028Z,5.03
2018-01-17T19:13:20.563Z,3.55
2018-01-17T19:18:36.348Z,3.50
2018-01-17T19:21:03.252Z,3.05
2018-01-17T19:23:29.760Z,3.42
2018-01-17T19:25:56.258Z,2.90
2018-01-17T19:28:22.831Z,3.15
2018-01-17T19:30:51.546Z,2.50
2018-01-17T19:33:18.031Z,3.10
2018-01-17T19:35:44.555Z,5.10
2018-01-17T19:38:11.444Z,3.08
2018-01-17T19:40:37.922Z,2.22
2018-01-17T19:43:04.518Z,2.10
2018-01-17T19:45:30.987Z,1.80
2018-01-17T19:47:57.612Z,2.80
2018-01-17T19:50:24.144Z,3.30
2018-01-17T19:52:50.680Z,2.92
2018-01-17T19:55:17.207Z,2.10
2018-01-17T19:57:43.989Z,1.85
2018-01-17T20:00:10.608Z,2.30
2018-01-17T20:02:37.368Z,2.62
2018-01-17T20:05:04.249Z,2.67
2018-01-17T20:07:30.633Z,2.50
2018-01-17T20:09:57.276Z,3.05
2018-01-17T20:12:23.832Z,2.80
2018-01-17T20:14:50.340Z,3.28
2018-01-17T20:17:17.196Z,3.87
2018-01-17T20:19:43.803Z,3.00
2018-01-17T20:22:10.308Z,3.25
2018-01-17T20:24:36.788Z,3.00
2018-01-17T20:27:03.665Z,2.00
2018-01-17T20:29:30.552Z,1.65
2018-01-17T20:31:57.022Z,2.15
2018-01-17T20:34:23.576Z,1.75
2018-01-17T20:36:50.408Z,2.00
2018-01-17T20:39:23.381Z,2.80
2018-01-17T20:41:49.967Z,2.12
2018-01-17T20:44:16.500Z,1.65
2018-01-17T20:46:43.396Z,1.67
2018-01-17T20:49:09.855Z,2.12
2018-01-17T20:51:36.424Z,1.30
2018-01-17T20:54:03.128Z,1.42
2018-01-17T20:56:29.533Z,1.75
2018-01-17T20:58:56.575Z,2.30
2018-01-17T21:01:23.474Z,1.48
2018-01-17T21:03:49.953Z,2.12
2018-01-17T21:06:16.479Z,1.40
2018-01-17T21:08:43.076Z,1.10
2018-01-17T21:11:09.624Z,1.60
2018-01-17T21:13:36.403Z,1.30
2018-01-17T21:16:02.978Z,2.20
2018-01-17T21:18:29.484Z,1.60
2018-01-17T21:20:56.679Z,2.30
2018-01-17T21:23:23.228Z,1.65
2018-01-17T21:25:49.794Z,1.85
2018-01-17T21:28:16.273Z,1.98
2018-01-17T21:30:43.126Z,1.98
2018-01-17T21:33:09.703Z,2.03
2018-01-17T21:35:36.828Z,1.65
2018-01-17T21:38:03.285Z,2.37
2018-01-17T21:40:29.876Z,2.03
2018-01-17T21:43:02.380Z,1.80
2018-01-17T21:45:35.080Z,1.37
2018-01-17T21:48:02.032Z,1.83
2018-01-17T21:50:28.559Z,2.08
2018-01-17T21:52:55.392Z,2.12
2018-01-17T21:55:25.404Z,1.95
2018-01-17T21:57:52.176Z,1.92
2018-01-17T22:00:18.695Z,1.87
2018-01-17T22:02:45.223Z,1.75
2018-01-17T22:05:11.762Z,2.00
2018-01-17T22:07:38.355Z,2.35
2018-01-17T22:10:05.164Z,2.70
2018-01-17T22:12:32.040Z,2.35
2018-01-17T22:14:58.572Z,1.70
2018-01-17T22:17:25.043Z,2.00
2018-01-17T22:19:51.587Z,2.45
2018-01-17T22:22:18.484Z,2.20
2018-01-17T22:24:45.026Z,2.60
2018-01-17T22:27:11.512Z,2.70
2018-01-17T22:29:38.203Z,2.75
2018-01-17T22:32:04.897Z,1.92
2018-01-17T22:34:31.400Z,1.42
2018-01-17T22:36:58.259Z,2.87
2018-01-17T22:39:24.799Z,1.98
2018-01-17T22:41:51.364Z,2.00
2018-01-17T22:44:17.924Z,2.03
2018-01-17T22:46:44.735Z,2.65
2018-01-17T22:49:11.274Z,2.53
2018-01-17T22:51:37.860Z,1.52
2018-01-17T22:54:04.676Z,1.90
2018-01-17T22:56:31.159Z,2.30
2018-01-17T22:58:57.724Z,2.00
2018-01-17T23:01:24.276Z,1.83
2018-01-17T23:03:50.829Z,1.73
2018-01-17T23:06:17.376Z,1.65
2018-01-17T23:08:43.851Z,1.80
2018-01-17T23:11:10.436Z,1.10
2018-01-17T23:13:36.948Z,1.87
2018-01-17T23:16:03.500Z,1.50
2018-01-17T23:18:30.329Z,1.77
2018-01-17T23:20:56.872Z,1.60
2018-01-17T23:23:23.647Z,1.70
2018-01-17T23:25:50.189Z,2.00
2018-01-17T23:28:16.794Z,1.85
2018-01-17T23:30:43.276Z,2.20
2018-01-17T23:33:09.838Z,2.00
2018-01-17T23:35:36.335Z,1.60
2018-01-17T23:38:02.875Z,1.52
2018-01-17T23:40:29.468Z,1.98
2018-01-17T23:42:56.300Z,1.70
2018-01-17T23:45:23.145Z,1.30
2018-01-17T23:47:49.488Z,1.35
2018-01-17T23:50:16.588Z,1.52
2018-01-17T23:52:43.600Z,1.60
2018-01-17T23:55:10.133Z,1.83
2018-01-17T23:57:37.005Z,2.03
